sensor_id;sensor_type;location;lat;lon;timestamp;temperature;humidity
30186;DHT22;31152;49.190;8.122;2023-09-08T00:00:05;19.80;99.90
30186;DHT22;31152;49.190;8.122;2023-09-08T00:02:32;19.80;99.90
30186;DHT22;31152;49.190;8.122;2023-09-08T00:05:01;19.80;99.90
30186;DHT22;31152;49.190;8.122;2023-09-08T00:07:28;19.70;99.90
30186;DHT22;31152;49.190;8.122;2023-09-08T00:09:55;19.60;99.90
30186;DHT22;31152;49.190;8.122;2023-09-08T00:12:22;19.60;99.90
30186;DHT22;31152;49.190;8.122;2023-09-08T00:14:49;19.50;99.90
30186;DHT22;31152;49.190;8.122;2023-09-08T00:17:18;19.50;99.90
30186;DHT22;31152;49.190;8.122;2023-09-08T00:19:45;19.40;99.90
30186;DHT22;31152;49.190;8.122;2023-09-08T00:22:12;19.30;99.90
30186;DHT22;31152;49.190;8.122;2023-09-08T00:24:38;19.30;99.90
30186;DHT22;31152;49.190;8.122;2023-09-08T00:27:05;19.30;99.90
30186;DHT22;31152;49.190;8.122;2023-09-08T00:29:34;19.20;99.90
30186;DHT22;31152;49.190;8.122;2023-09-08T00:32:01;19.20;99.90
30186;DHT22;31152;49.190;8.122;2023-09-08T00:34:28;19.20;99.90
30186;DHT22;31152;49.190;8.122;2023-09-08T00:36:55;19.10;99.90
30186;DHT22;31152;49.190;8.122;2023-09-08T00:39:24;19.10;99.90
30186;DHT22;31152;49.190;8.122;2023-09-08T00:41:50;19.10;99.90
30186;DHT22;31152;49.190;8.122;2023-09-08T00:44:17;19.00;99.90
30186;DHT22;31152;49.190;8.122;2023-09-08T00:46:44;19.00;99.90
30186;DHT22;31152;49.190;8.122;2023-09-08T00:49:11;19.00;99.90
30186;DHT22;31152;49.190;8.122;2023-09-08T00:51:38;19.00;99.90
30186;DHT22;31152;49.190;8.122;2023-09-08T00:54:06;18.90;99.90
30186;DHT22;31152;49.190;8.122;2023-09-08T00:56:34;18.90;99.90
30186;DHT22;31152;49.190;8.122;2023-09-08T00:59:04;18.90;99.90
30186;DHT22;31152;49.190;8.122;2023-09-08T01:01:31;18.90;99.90
30186;DHT22;31152;49.190;8.122;2023-09-08T01:04:00;18.90;99.90
30186;DHT22;31152;49.190;8.122;2023-09-08T01:06:27;18.80;99.90
30186;DHT22;31152;49.190;8.122;2023-09-08T01:08:57;18.80;99.90
30186;DHT22;31152;49.190;8.122;2023-09-08T01:11:26;18.70;99.90
30186;DHT22;31152;49.190;8.122;2023-09-08T01:13:53;18.70;99.90
30186;DHT22;31152;49.190;8.122;2023-09-08T01:16:20;18.70;99.90
30186;DHT22;31152;49.190;8.122;2023-09-08T01:18:47;18.70;99.90
30186;DHT22;31152;49.190;8.122;2023-09-08T01:27:33;18.60;99.90
30186;DHT22;31152;49.190;8.122;2023-09-08T01:30:02;18.50;99.90
30186;DHT22;31152;49.190;8.122;2023-09-08T01:32:30;18.50;99.90
30186;DHT22;31152;49.190;8.122;2023-09-08T01:34:59;18.50;99.90
30186;DHT22;31152;49.190;8.122;2023-09-08T01:37:26;18.40;99.90
30186;DHT22;31152;49.190;8.122;2023-09-08T01:39:55;18.30;99.90
30186;DHT22;31152;49.190;8.122;2023-09-08T01:42:22;18.30;99.90
30186;DHT22;31152;49.190;8.122;2023-09-08T01:44:48;18.30;99.90
30186;DHT22;31152;49.190;8.122;2023-09-08T01:47:16;18.20;99.90
30186;DHT22;31152;49.190;8.122;2023-09-08T01:49:43;18.20;99.90
30186;DHT22;31152;49.190;8.122;2023-09-08T01:52:09;18.10;99.90
30186;DHT22;31152;49.190;8.122;2023-09-08T01:54:36;18.10;99.90
30186;DHT22;31152;49.190;8.122;2023-09-08T01:57:05;18.00;99.90
30186;DHT22;31152;49.190;8.122;2023-09-08T01:59:32;18.00;99.90
30186;DHT22;31152;49.190;8.122;2023-09-08T02:02:03;17.90;99.90
30186;DHT22;31152;49.190;8.122;2023-09-08T02:04:31;17.80;99.90
30186;DHT22;31152;49.190;8.122;2023-09-08T02:06:57;17.80;99.90
30186;DHT22;31152;49.190;8.122;2023-09-08T02:09:35;17.80;99.90
30186;DHT22;31152;49.190;8.122;2023-09-08T02:12:03;17.80;99.90
30186;DHT22;31152;49.190;8.122;2023-09-08T02:14:30;17.70;99.90
30186;DHT22;31152;49.190;8.122;2023-09-08T02:16:57;17.80;99.90
30186;DHT22;31152;49.190;8.122;2023-09-08T02:19:26;17.80;99.90
30186;DHT22;31152;49.190;8.122;2023-09-08T02:21:53;17.70;99.90
30186;DHT22;31152;49.190;8.122;2023-09-08T02:24:22;17.70;99.90
30186;DHT22;31152;49.190;8.122;2023-09-08T02:26:49;17.60;99.90
30186;DHT22;31152;49.190;8.122;2023-09-08T02:29:16;17.50;99.90
30186;DHT22;31152;49.190;8.122;2023-09-08T02:31:43;17.50;99.90
30186;DHT22;31152;49.190;8.122;2023-09-08T02:34:12;17.40;99.90
30186;DHT22;31152;49.190;8.122;2023-09-08T02:36:40;17.40;99.90
30186;DHT22;31152;49.190;8.122;2023-09-08T02:39:07;17.40;99.90
30186;DHT22;31152;49.190;8.122;2023-09-08T02:41:33;17.30;99.90
30186;DHT22;31152;49.190;8.122;2023-09-08T02:44:03;17.30;99.90
30186;DHT22;31152;49.190;8.122;2023-09-08T02:46:30;17.30;99.90
30186;DHT22;31152;49.190;8.122;2023-09-08T02:49:00;17.40;99.90
30186;DHT22;31152;49.190;8.122;2023-09-08T02:51:28;17.50;99.90
30186;DHT22;31152;49.190;8.122;2023-09-08T02:53:55;17.50;99.90
30186;DHT22;31152;49.190;8.122;2023-09-08T02:56:21;17.60;99.90
30186;DHT22;31152;49.190;8.122;2023-09-08T02:58:51;17.70;99.90
30186;DHT22;31152;49.190;8.122;2023-09-08T03:01:17;17.70;99.90
30186;DHT22;31152;49.190;8.122;2023-09-08T03:03:47;17.70;99.90
30186;DHT22;31152;49.190;8.122;2023-09-08T03:06:17;17.80;99.90
30186;DHT22;31152;49.190;8.122;2023-09-08T03:08:44;17.80;99.90
30186;DHT22;31152;49.190;8.122;2023-09-08T03:11:12;17.90;99.90
30186;DHT22;31152;49.190;8.122;2023-09-08T03:13:39;17.90;99.90
30186;DHT22;31152;49.190;8.122;2023-09-08T03:16:08;18.00;99.90
30186;DHT22;31152;49.190;8.122;2023-09-08T03:18:38;18.10;99.90
30186;DHT22;31152;49.190;8.122;2023-09-08T03:21:05;18.10;99.90
30186;DHT22;31152;49.190;8.122;2023-09-08T03:23:43;18.10;99.90
30186;DHT22;31152;49.190;8.122;2023-09-08T03:26:12;18.20;99.90
30186;DHT22;31152;49.190;8.122;2023-09-08T03:28:42;18.20;99.90
30186;DHT22;31152;49.190;8.122;2023-09-08T03:31:09;18.10;99.90
30186;DHT22;31152;49.190;8.122;2023-09-08T03:33:36;18.20;99.90
30186;DHT22;31152;49.190;8.122;2023-09-08T03:36:03;18.20;99.90
30186;DHT22;31152;49.190;8.122;2023-09-08T03:38:30;18.20;99.90
30186;DHT22;31152;49.190;8.122;2023-09-08T03:40:57;18.20;99.90
30186;DHT22;31152;49.190;8.122;2023-09-08T03:43:23;18.20;99.90
30186;DHT22;31152;49.190;8.122;2023-09-08T03:45:50;18.20;99.90
30186;DHT22;31152;49.190;8.122;2023-09-08T03:48:17;18.20;99.90
30186;DHT22;31152;49.190;8.122;2023-09-08T03:50:44;18.20;99.90
30186;DHT22;31152;49.190;8.122;2023-09-08T03:53:12;18.20;99.90
30186;DHT22;31152;49.190;8.122;2023-09-08T03:55:39;18.10;99.90
30186;DHT22;31152;49.190;8.122;2023-09-08T03:58:06;18.10;99.90
30186;DHT22;31152;49.190;8.122;2023-09-08T04:00:35;18.10;99.90
30186;DHT22;31152;49.190;8.122;2023-09-08T04:03:03;18.10;99.90
30186;DHT22;31152;49.190;8.122;2023-09-08T04:05:31;18.20;99.90
30186;DHT22;31152;49.190;8.122;2023-09-08T04:07:57;18.20;99.90
30186;DHT22;31152;49.190;8.122;2023-09-08T04:10:25;18.20;99.90
30186;DHT22;31152;49.190;8.122;2023-09-08T04:12:52;18.20;99.90
30186;DHT22;31152;49.190;8.122;2023-09-08T04:15:18;18.20;99.90
30186;DHT22;31152;49.190;8.122;2023-09-08T04:17:48;18.20;99.90
30186;DHT22;31152;49.190;8.122;2023-09-08T04:20:15;18.20;99.90
30186;DHT22;31152;49.190;8.122;2023-09-08T04:22:42;18.20;99.90
30186;DHT22;31152;49.190;8.122;2023-09-08T04:25:09;18.10;99.90
30186;DHT22;31152;49.190;8.122;2023-09-08T04:27:36;18.10;99.90
30186;DHT22;31152;49.190;8.122;2023-09-08T04:30:05;18.10;99.90
30186;DHT22;31152;49.190;8.122;2023-09-08T04:32:34;18.00;99.90
30186;DHT22;31152;49.190;8.122;2023-09-08T04:35:04;18.00;99.90
30186;DHT22;31152;49.190;8.122;2023-09-08T04:37:34;18.00;99.90
30186;DHT22;31152;49.190;8.122;2023-09-08T04:40:01;18.00;99.90
30186;DHT22;31152;49.190;8.122;2023-09-08T04:42:28;18.00;99.90
30186;DHT22;31152;49.190;8.122;2023-09-08T04:44:55;18.00;99.90
30186;DHT22;31152;49.190;8.122;2023-09-08T04:47:22;18.00;99.90
30186;DHT22;31152;49.190;8.122;2023-09-08T04:49:49;18.00;99.90
30186;DHT22;31152;49.190;8.122;2023-09-08T04:52:16;18.00;99.90
30186;DHT22;31152;49.190;8.122;2023-09-08T04:54:43;18.00;99.90
30186;DHT22;31152;49.190;8.122;2023-09-08T04:57:10;17.90;99.90
30186;DHT22;31152;49.190;8.122;2023-09-08T04:59:48;18.00;99.90
30186;DHT22;31152;49.190;8.122;2023-09-08T05:02:15;18.00;99.90
30186;DHT22;31152;49.190;8.122;2023-09-08T05:04:45;18.10;99.90
30186;DHT22;31152;49.190;8.122;2023-09-08T05:07:14;18.10;99.90
30186;DHT22;31152;49.190;8.122;2023-09-08T05:09:43;18.10;99.90
30186;DHT22;31152;49.190;8.122;2023-09-08T05:12:13;18.20;99.90
30186;DHT22;31152;49.190;8.122;2023-09-08T05:14:42;18.20;99.90
30186;DHT22;31152;49.190;8.122;2023-09-08T05:17:08;18.30;99.90
30186;DHT22;31152;49.190;8.122;2023-09-08T05:19:35;18.40;99.90
30186;DHT22;31152;49.190;8.122;2023-09-08T05:22:02;18.40;99.90
30186;DHT22;31152;49.190;8.122;2023-09-08T05:24:29;18.40;99.90
30186;DHT22;31152;49.190;8.122;2023-09-08T05:26:58;18.50;99.90
30186;DHT22;31152;49.190;8.122;2023-09-08T05:29:29;18.50;99.90
30186;DHT22;31152;49.190;8.122;2023-09-08T05:31:56;18.50;99.90
30186;DHT22;31152;49.190;8.122;2023-09-08T05:34:23;18.50;99.90
30186;DHT22;31152;49.190;8.122;2023-09-08T05:36:53;18.60;99.90
30186;DHT22;31152;49.190;8.122;2023-09-08T05:39:22;18.60;99.90
30186;DHT22;31152;49.190;8.122;2023-09-08T05:41:49;18.60;99.90
30186;DHT22;31152;49.190;8.122;2023-09-08T05:44:15;18.60;99.90
30186;DHT22;31152;49.190;8.122;2023-09-08T05:46:42;18.60;99.90
30186;DHT22;31152;49.190;8.122;2023-09-08T05:49:09;18.70;99.90
30186;DHT22;31152;49.190;8.122;2023-09-08T05:51:36;18.80;99.90
30186;DHT22;31152;49.190;8.122;2023-09-08T05:54:03;18.80;99.90
30186;DHT22;31152;49.190;8.122;2023-09-08T05:56:31;19.00;99.90
30186;DHT22;31152;49.190;8.122;2023-09-08T05:58:58;19.00;99.90
30186;DHT22;31152;49.190;8.122;2023-09-08T06:01:25;19.10;99.90
30186;DHT22;31152;49.190;8.122;2023-09-08T06:03:52;19.10;99.90
30186;DHT22;31152;49.190;8.122;2023-09-08T06:06:23;19.20;99.90
30186;DHT22;31152;49.190;8.122;2023-09-08T06:08:56;19.40;99.90
30186;DHT22;31152;49.190;8.122;2023-09-08T06:11:23;19.50;99.90
30186;DHT22;31152;49.190;8.122;2023-09-08T06:13:49;19.60;99.90
30186;DHT22;31152;49.190;8.122;2023-09-08T06:16:16;19.70;99.90
30186;DHT22;31152;49.190;8.122;2023-09-08T06:18:43;19.80;99.90
30186;DHT22;31152;49.190;8.122;2023-09-08T06:21:11;19.90;99.90
30186;DHT22;31152;49.190;8.122;2023-09-08T06:23:38;20.00;99.90
30186;DHT22;31152;49.190;8.122;2023-09-08T06:26:04;20.20;99.90
30186;DHT22;31152;49.190;8.122;2023-09-08T06:28:31;20.30;99.90
30186;DHT22;31152;49.190;8.122;2023-09-08T06:31:01;20.30;99.90
30186;DHT22;31152;49.190;8.122;2023-09-08T06:33:28;20.50;99.90
30186;DHT22;31152;49.190;8.122;2023-09-08T06:35:57;20.60;99.90
30186;DHT22;31152;49.190;8.122;2023-09-08T06:38:26;20.70;99.90
30186;DHT22;31152;49.190;8.122;2023-09-08T06:40:53;20.80;99.90
30186;DHT22;31152;49.190;8.122;2023-09-08T06:43:20;20.90;99.90
30186;DHT22;31152;49.190;8.122;2023-09-08T06:45:48;21.00;99.90
30186;DHT22;31152;49.190;8.122;2023-09-08T06:48:18;21.20;99.90
30186;DHT22;31152;49.190;8.122;2023-09-08T06:50:45;21.20;99.90
30186;DHT22;31152;49.190;8.122;2023-09-08T06:53:11;21.30;99.90
30186;DHT22;31152;49.190;8.122;2023-09-08T06:55:39;21.40;99.90
30186;DHT22;31152;49.190;8.122;2023-09-08T06:58:10;21.50;99.90
30186;DHT22;31152;49.190;8.122;2023-09-08T07:00:37;21.60;99.90
30186;DHT22;31152;49.190;8.122;2023-09-08T07:03:04;21.70;99.90
30186;DHT22;31152;49.190;8.122;2023-09-08T07:05:32;21.80;99.90
30186;DHT22;31152;49.190;8.122;2023-09-08T07:08:01;21.90;99.90
30186;DHT22;31152;49.190;8.122;2023-09-08T07:10:29;22.00;99.90
30186;DHT22;31152;49.190;8.122;2023-09-08T07:12:56;22.10;99.90
30186;DHT22;31152;49.190;8.122;2023-09-08T07:15:22;22.10;99.90
30186;DHT22;31152;49.190;8.122;2023-09-08T07:17:49;22.20;99.90
30186;DHT22;31152;49.190;8.122;2023-09-08T07:20:19;22.30;99.90
30186;DHT22;31152;49.190;8.122;2023-09-08T07:22:46;22.40;99.90
30186;DHT22;31152;49.190;8.122;2023-09-08T07:25:13;22.50;99.90
30186;DHT22;31152;49.190;8.122;2023-09-08T07:27:40;22.60;99.90
30186;DHT22;31152;49.190;8.122;2023-09-08T07:30:08;22.70;99.10
30186;DHT22;31152;49.190;8.122;2023-09-08T07:32:35;22.70;99.00
30186;DHT22;31152;49.190;8.122;2023-09-08T07:35:02;22.80;99.40
30186;DHT22;31152;49.190;8.122;2023-09-08T07:37:29;22.90;99.30
30186;DHT22;31152;49.190;8.122;2023-09-08T07:39:56;23.00;98.90
30186;DHT22;31152;49.190;8.122;2023-09-08T07:42:23;23.10;99.60
30186;DHT22;31152;49.190;8.122;2023-09-08T07:44:54;23.30;98.70
30186;DHT22;31152;49.190;8.122;2023-09-08T07:47:21;23.30;98.40
30186;DHT22;31152;49.190;8.122;2023-09-08T07:49:48;23.50;98.00
30186;DHT22;31152;49.190;8.122;2023-09-08T07:52:15;23.60;97.80
30186;DHT22;31152;49.190;8.122;2023-09-08T07:54:42;23.60;96.90
30186;DHT22;31152;49.190;8.122;2023-09-08T07:57:08;23.60;97.60
30186;DHT22;31152;49.190;8.122;2023-09-08T07:59:37;23.40;97.20
30186;DHT22;31152;49.190;8.122;2023-09-08T08:02:04;23.50;97.70
30186;DHT22;31152;49.190;8.122;2023-09-08T08:04:31;23.70;97.50
30186;DHT22;31152;49.190;8.122;2023-09-08T08:07:01;23.80;97.30
30186;DHT22;31152;49.190;8.122;2023-09-08T08:09:29;24.00;97.10
30186;DHT22;31152;49.190;8.122;2023-09-08T08:11:56;23.90;96.50
30186;DHT22;31152;49.190;8.122;2023-09-08T08:14:28;24.10;96.40
30186;DHT22;31152;49.190;8.122;2023-09-08T08:16:55;24.30;96.10
30186;DHT22;31152;49.190;8.122;2023-09-08T08:19:24;24.40;95.70
30186;DHT22;31152;49.190;8.122;2023-09-08T08:21:53;24.40;95.30
30186;DHT22;31152;49.190;8.122;2023-09-08T08:24:22;24.50;96.10
30186;DHT22;31152;49.190;8.122;2023-09-08T08:26:49;24.60;95.50
30186;DHT22;31152;49.190;8.122;2023-09-08T08:29:21;24.80;95.70
30186;DHT22;31152;49.190;8.122;2023-09-08T08:31:48;24.90;95.80
30186;DHT22;31152;49.190;8.122;2023-09-08T08:34:15;25.00;95.40
30186;DHT22;31152;49.190;8.122;2023-09-08T08:36:42;25.00;95.80
30186;DHT22;31152;49.190;8.122;2023-09-08T08:39:09;25.10;95.00
30186;DHT22;31152;49.190;8.122;2023-09-08T08:41:38;25.10;94.80
30186;DHT22;31152;49.190;8.122;2023-09-08T08:44:07;25.10;95.00
30186;DHT22;31152;49.190;8.122;2023-09-08T08:46:36;25.30;95.20
30186;DHT22;31152;49.190;8.122;2023-09-08T08:49:04;25.30;95.40
30186;DHT22;31152;49.190;8.122;2023-09-08T08:51:31;25.50;95.50
30186;DHT22;31152;49.190;8.122;2023-09-08T08:53:58;25.50;94.50
30186;DHT22;31152;49.190;8.122;2023-09-08T08:56:31;25.70;94.30
30186;DHT22;31152;49.190;8.122;2023-09-08T08:59:03;25.90;94.20
30186;DHT22;31152;49.190;8.122;2023-09-08T09:01:30;26.00;93.50
30186;DHT22;31152;49.190;8.122;2023-09-08T09:03:58;26.00;93.20
30186;DHT22;31152;49.190;8.122;2023-09-08T09:06:28;25.90;93.40
30186;DHT22;31152;49.190;8.122;2023-09-08T09:08:55;26.10;93.50
30186;DHT22;31152;49.190;8.122;2023-09-08T09:11:22;26.20;92.70
30186;DHT22;31152;49.190;8.122;2023-09-08T09:13:51;26.40;93.20
30186;DHT22;31152;49.190;8.122;2023-09-08T09:16:18;26.50;93.10
30186;DHT22;31152;49.190;8.122;2023-09-08T09:18:58;26.70;92.80
30186;DHT22;31152;49.190;8.122;2023-09-08T09:21:48;26.90;92.60
30186;DHT22;31152;49.190;8.122;2023-09-08T09:27:04;27.10;91.80
30186;DHT22;31152;49.190;8.122;2023-09-08T09:29:48;27.30;91.70
30186;DHT22;31152;49.190;8.122;2023-09-08T09:32:16;27.50;91.30
30186;DHT22;31152;49.190;8.122;2023-09-08T09:34:52;27.60;91.10
30186;DHT22;31152;49.190;8.122;2023-09-08T09:37:21;27.80;91.10
30186;DHT22;31152;49.190;8.122;2023-09-08T09:39:51;27.60;90.50
30186;DHT22;31152;49.190;8.122;2023-09-08T09:42:19;27.70;91.20
30186;DHT22;31152;49.190;8.122;2023-09-08T09:44:53;27.90;90.70
30186;DHT22;31152;49.190;8.122;2023-09-08T09:47:19;28.10;91.00
30186;DHT22;31152;49.190;8.122;2023-09-08T09:49:48;28.20;90.50
30186;DHT22;31152;49.190;8.122;2023-09-08T09:52:23;28.30;89.60
30186;DHT22;31152;49.190;8.122;2023-09-08T09:54:55;28.30;90.30
30186;DHT22;31152;49.190;8.122;2023-09-08T09:57:23;28.30;89.80
30186;DHT22;31152;49.190;8.122;2023-09-08T09:59:51;28.20;89.60
30186;DHT22;31152;49.190;8.122;2023-09-08T10:02:21;28.20;90.30
30186;DHT22;31152;49.190;8.122;2023-09-08T10:04:49;28.20;89.80
30186;DHT22;31152;49.190;8.122;2023-09-08T10:07:18;28.20;90.40
30186;DHT22;31152;49.190;8.122;2023-09-08T10:09:46;28.30;90.70
30186;DHT22;31152;49.190;8.122;2023-09-08T10:12:14;28.30;90.30
30186;DHT22;31152;49.190;8.122;2023-09-08T10:14:45;28.30;90.50
30186;DHT22;31152;49.190;8.122;2023-09-08T10:17:18;28.50;90.80
30186;DHT22;31152;49.190;8.122;2023-09-08T10:19:50;28.80;90.00
30186;DHT22;31152;49.190;8.122;2023-09-08T10:22:24;29.00;90.00
30186;DHT22;31152;49.190;8.122;2023-09-08T10:24:54;29.20;89.30
30186;DHT22;31152;49.190;8.122;2023-09-08T10:27:22;29.40;89.00
30186;DHT22;31152;49.190;8.122;2023-09-08T10:29:50;29.60;88.30
30186;DHT22;31152;49.190;8.122;2023-09-08T10:32:19;29.80;87.60
30186;DHT22;31152;49.190;8.122;2023-09-08T10:34:47;30.00;87.50
30186;DHT22;31152;49.190;8.122;2023-09-08T10:37:22;30.00;86.30
30186;DHT22;31152;49.190;8.122;2023-09-08T10:39:49;30.10;86.30
30186;DHT22;31152;49.190;8.122;2023-09-08T10:50:28;30.70;84.80
30186;DHT22;31152;49.190;8.122;2023-09-08T10:53:10;30.90;82.10
30186;DHT22;31152;49.190;8.122;2023-09-08T10:55:49;30.50;81.60
30186;DHT22;31152;49.190;8.122;2023-09-08T10:58:39;30.30;82.50
30186;DHT22;31152;49.190;8.122;2023-09-08T11:01:16;30.20;83.50
30186;DHT22;31152;49.190;8.122;2023-09-08T11:03:46;30.30;83.30
30186;DHT22;31152;49.190;8.122;2023-09-08T11:06:17;30.50;84.20
30186;DHT22;31152;49.190;8.122;2023-09-08T11:08:45;30.60;82.70
30186;DHT22;31152;49.190;8.122;2023-09-08T11:11:14;30.90;83.30
30186;DHT22;31152;49.190;8.122;2023-09-08T11:13:44;30.90;81.80
30186;DHT22;31152;49.190;8.122;2023-09-08T11:16:16;31.00;82.00
30186;DHT22;31152;49.190;8.122;2023-09-08T11:18:44;31.10;82.70
30186;DHT22;31152;49.190;8.122;2023-09-08T11:21:13;31.20;80.50
30186;DHT22;31152;49.190;8.122;2023-09-08T11:23:40;31.40;79.50
30186;DHT22;31152;49.190;8.122;2023-09-08T11:26:07;31.50;80.10
30186;DHT22;31152;49.190;8.122;2023-09-08T11:28:35;31.60;79.00
30186;DHT22;31152;49.190;8.122;2023-09-08T11:31:03;31.50;78.70
30186;DHT22;31152;49.190;8.122;2023-09-08T11:33:35;31.50;79.90
30186;DHT22;31152;49.190;8.122;2023-09-08T11:36:15;31.80;80.20
30186;DHT22;31152;49.190;8.122;2023-09-08T11:38:44;31.80;77.90
30186;DHT22;31152;49.190;8.122;2023-09-08T11:41:12;31.40;78.30
30186;DHT22;31152;49.190;8.122;2023-09-08T11:43:39;31.40;77.90
30186;DHT22;31152;49.190;8.122;2023-09-08T11:46:06;31.60;79.30
30186;DHT22;31152;49.190;8.122;2023-09-08T11:48:34;31.80;79.10
30186;DHT22;31152;49.190;8.122;2023-09-08T11:51:06;32.00;77.50
30186;DHT22;31152;49.190;8.122;2023-09-08T11:53:37;32.20;76.50
30186;DHT22;31152;49.190;8.122;2023-09-08T11:56:06;31.90;76.30
30186;DHT22;31152;49.190;8.122;2023-09-08T11:58:33;31.50;76.40
30186;DHT22;31152;49.190;8.122;2023-09-08T12:01:02;31.30;77.00
30186;DHT22;31152;49.190;8.122;2023-09-08T12:03:30;31.40;79.20
30186;DHT22;31152;49.190;8.122;2023-09-08T12:05:59;31.60;78.80
30186;DHT22;31152;49.190;8.122;2023-09-08T12:08:31;32.10;77.60
30186;DHT22;31152;49.190;8.122;2023-09-08T12:10:58;32.40;75.90
30186;DHT22;31152;49.190;8.122;2023-09-08T12:13:28;32.40;75.50
30186;DHT22;31152;49.190;8.122;2023-09-08T12:15:55;32.40;76.50
30186;DHT22;31152;49.190;8.122;2023-09-08T12:18:38;32.40;75.60
30186;DHT22;31152;49.190;8.122;2023-09-08T12:21:06;32.90;76.50
30186;DHT22;31152;49.190;8.122;2023-09-08T12:23:33;33.20;74.60
30186;DHT22;31152;49.190;8.122;2023-09-08T12:26:07;33.60;73.80
30186;DHT22;31152;49.190;8.122;2023-09-08T12:28:36;34.10;73.60
30186;DHT22;31152;49.190;8.122;2023-09-08T12:31:04;34.40;71.50
30186;DHT22;31152;49.190;8.122;2023-09-08T12:33:32;34.50;70.90
30186;DHT22;31152;49.190;8.122;2023-09-08T12:35:58;34.80;69.90
30186;DHT22;31152;49.190;8.122;2023-09-08T12:38:30;35.00;67.30
30186;DHT22;31152;49.190;8.122;2023-09-08T12:40:59;34.80;68.30
30186;DHT22;31152;49.190;8.122;2023-09-08T12:43:28;34.90;69.60
30186;DHT22;31152;49.190;8.122;2023-09-08T12:45:56;34.80;68.10
30186;DHT22;31152;49.190;8.122;2023-09-08T12:48:24;35.00;67.70
30186;DHT22;31152;49.190;8.122;2023-09-08T12:50:54;35.00;66.20
30186;DHT22;31152;49.190;8.122;2023-09-08T12:53:22;34.40;67.00
30186;DHT22;31152;49.190;8.122;2023-09-08T12:55:50;34.00;69.30
30186;DHT22;31152;49.190;8.122;2023-09-08T12:58:17;33.90;68.90
30186;DHT22;31152;49.190;8.122;2023-09-08T13:00:44;33.90;68.70
30186;DHT22;31152;49.190;8.122;2023-09-08T13:03:11;34.20;69.10
30186;DHT22;31152;49.190;8.122;2023-09-08T13:05:38;34.50;69.00
30186;DHT22;31152;49.190;8.122;2023-09-08T13:08:06;34.70;68.00
30186;DHT22;31152;49.190;8.122;2023-09-08T13:10:33;34.90;67.60
30186;DHT22;31152;49.190;8.122;2023-09-08T13:13:00;35.00;67.40
30186;DHT22;31152;49.190;8.122;2023-09-08T13:15:27;35.20;67.10
30186;DHT22;31152;49.190;8.122;2023-09-08T13:17:55;35.40;66.90
30186;DHT22;31152;49.190;8.122;2023-09-08T13:20:22;35.60;66.00
30186;DHT22;31152;49.190;8.122;2023-09-08T13:22:51;35.70;65.20
30186;DHT22;31152;49.190;8.122;2023-09-08T13:25:20;35.70;64.70
30186;DHT22;31152;49.190;8.122;2023-09-08T13:27:47;35.30;63.50
30186;DHT22;31152;49.190;8.122;2023-09-08T13:30:15;35.10;64.90
30186;DHT22;31152;49.190;8.122;2023-09-08T13:32:43;35.10;65.60
30186;DHT22;31152;49.190;8.122;2023-09-08T13:35:11;35.10;65.40
30186;DHT22;31152;49.190;8.122;2023-09-08T13:37:40;35.40;66.20
30186;DHT22;31152;49.190;8.122;2023-09-08T13:40:09;35.60;65.60
30186;DHT22;31152;49.190;8.122;2023-09-08T13:42:36;35.60;65.00
30186;DHT22;31152;49.190;8.122;2023-09-08T13:45:05;35.70;64.30
30186;DHT22;31152;49.190;8.122;2023-09-08T13:47:35;35.80;64.30
30186;DHT22;31152;49.190;8.122;2023-09-08T13:50:05;35.50;63.90
30186;DHT22;31152;49.190;8.122;2023-09-08T13:52:36;35.60;64.50
30186;DHT22;31152;49.190;8.122;2023-09-08T13:55:09;35.50;64.50
30186;DHT22;31152;49.190;8.122;2023-09-08T13:57:58;35.60;63.80
30186;DHT22;31152;49.190;8.122;2023-09-08T14:00:28;35.80;64.00
30186;DHT22;31152;49.190;8.122;2023-09-08T14:02:57;35.70;63.20
30186;DHT22;31152;49.190;8.122;2023-09-08T14:05:25;35.60;63.30
30186;DHT22;31152;49.190;8.122;2023-09-08T14:08:00;35.30;65.70
30186;DHT22;31152;49.190;8.122;2023-09-08T14:10:34;35.20;65.20
30186;DHT22;31152;49.190;8.122;2023-09-08T14:13:16;35.30;65.30
30186;DHT22;31152;49.190;8.122;2023-09-08T14:15:43;35.50;65.10
30186;DHT22;31152;49.190;8.122;2023-09-08T14:18:10;35.60;64.40
30186;DHT22;31152;49.190;8.122;2023-09-08T14:20:37;35.60;64.00
30186;DHT22;31152;49.190;8.122;2023-09-08T14:23:03;35.50;64.10
30186;DHT22;31152;49.190;8.122;2023-09-08T14:25:35;35.50;64.30
30186;DHT22;31152;49.190;8.122;2023-09-08T14:28:01;35.50;63.50
30186;DHT22;31152;49.190;8.122;2023-09-08T14:30:34;35.40;64.50
30186;DHT22;31152;49.190;8.122;2023-09-08T14:33:04;35.40;63.80
30186;DHT22;31152;49.190;8.122;2023-09-08T14:35:32;35.50;64.10
30186;DHT22;31152;49.190;8.122;2023-09-08T14:38:02;35.30;62.80
30186;DHT22;31152;49.190;8.122;2023-09-08T14:40:29;35.10;64.20
30186;DHT22;31152;49.190;8.122;2023-09-08T14:42:56;35.10;63.60
30186;DHT22;31152;49.190;8.122;2023-09-08T14:45:23;35.00;65.50
30186;DHT22;31152;49.190;8.122;2023-09-08T14:47:50;35.00;64.60
30186;DHT22;31152;49.190;8.122;2023-09-08T14:50:17;35.00;64.10
30186;DHT22;31152;49.190;8.122;2023-09-08T14:52:44;35.10;64.20
30186;DHT22;31152;49.190;8.122;2023-09-08T14:55:11;35.00;64.20
30186;DHT22;31152;49.190;8.122;2023-09-08T14:57:37;35.00;64.10
30186;DHT22;31152;49.190;8.122;2023-09-08T15:00:05;35.00;64.90
30186;DHT22;31152;49.190;8.122;2023-09-08T15:02:33;34.80;64.10
30186;DHT22;31152;49.190;8.122;2023-09-08T15:05:02;34.80;64.80
30186;DHT22;31152;49.190;8.122;2023-09-08T15:07:29;34.90;64.60
30186;DHT22;31152;49.190;8.122;2023-09-08T15:09:56;34.80;65.20
30186;DHT22;31152;49.190;8.122;2023-09-08T15:12:24;35.00;64.60
30186;DHT22;31152;49.190;8.122;2023-09-08T15:14:50;34.90;64.40
30186;DHT22;31152;49.190;8.122;2023-09-08T15:17:17;35.00;64.20
30186;DHT22;31152;49.190;8.122;2023-09-08T15:19:44;35.00;63.90
30186;DHT22;31152;49.190;8.122;2023-09-08T15:22:11;35.00;63.70
30186;DHT22;31152;49.190;8.122;2023-09-08T15:24:39;35.00;64.50
30186;DHT22;31152;49.190;8.122;2023-09-08T15:27:06;35.00;64.20
30186;DHT22;31152;49.190;8.122;2023-09-08T15:29:33;35.00;64.20
30186;DHT22;31152;49.190;8.122;2023-09-08T15:32:00;35.10;63.30
30186;DHT22;31152;49.190;8.122;2023-09-08T15:34:27;35.10;62.90
30186;DHT22;31152;49.190;8.122;2023-09-08T15:36:54;35.30;63.10
30186;DHT22;31152;49.190;8.122;2023-09-08T15:39:23;35.70;62.40
30186;DHT22;31152;49.190;8.122;2023-09-08T15:41:50;36.10;61.40
30186;DHT22;31152;49.190;8.122;2023-09-08T15:44:16;36.60;59.90
30186;DHT22;31152;49.190;8.122;2023-09-08T15:46:43;37.10;59.30
30186;DHT22;31152;49.190;8.122;2023-09-08T15:49:12;37.40;58.80
30186;DHT22;31152;49.190;8.122;2023-09-08T15:51:39;37.80;57.90
30186;DHT22;31152;49.190;8.122;2023-09-08T15:54:06;38.10;57.60